createdAt,value
2022-10-25T00:01:21.768Z,55.09
2022-10-25T00:03:50.378Z,55.19
2022-10-25T00:06:20.324Z,55.16
2022-10-25T00:08:49.250Z,55.09
2022-10-25T00:11:20.907Z,55.26
2022-10-25T00:13:50.866Z,54.99
2022-10-25T00:16:22.182Z,55.00
2022-10-25T00:18:50.679Z,55.54
2022-10-25T00:21:20.569Z,55.40
2022-10-25T00:23:49.693Z,55.48
2022-10-25T00:26:18.327Z,55.35
2022-10-25T00:28:47.025Z,55.10
2022-10-25T00:31:18.208Z,55.54
2022-10-25T00:33:46.842Z,54.99
2022-10-25T00:36:17.983Z,55.08
2022-10-25T00:38:48.238Z,55.20
2022-10-25T00:41:19.316Z,55.49
2022-10-25T00:43:50.128Z,55.37
2022-10-25T00:46:24.394Z,55.35
2022-10-25T00:48:57.714Z,55.16
2022-10-25T00:51:30.642Z,55.52
2022-10-25T00:54:00.623Z,55.05
2022-10-25T00:56:33.015Z,55.32
2022-10-25T00:59:04.973Z,55.15
2022-10-25T01:01:33.897Z,54.94
2022-10-25T01:04:08.582Z,55.06
2022-10-25T01:06:40.333Z,55.36
2022-10-25T01:09:11.744Z,55.33
2022-10-25T01:11:40.150Z,55.43
2022-10-25T01:14:11.674Z,55.51
2022-10-25T01:16:48.844Z,55.27
2022-10-25T01:19:37.222Z,54.94
2022-10-25T01:22:10.234Z,55.45
2022-10-25T01:25:04.103Z,55.35
2022-10-25T01:27:49.125Z,55.47
2022-10-25T01:30:21.223Z,55.10
2022-10-25T01:33:09.038Z,55.06
2022-10-25T01:35:46.411Z,55.18
2022-10-25T01:38:34.204Z,55.35
2022-10-25T01:41:16.249Z,55.06
2022-10-25T01:43:56.649Z,55.51
2022-10-25T01:46:30.149Z,55.31
2022-10-25T01:49:05.144Z,55.05
2022-10-25T01:51:37.124Z,54.99
2022-10-25T01:54:18.976Z,55.19
2022-10-25T01:56:59.065Z,55.36
2022-10-25T01:59:44.324Z,55.48
2022-10-25T02:02:19.575Z,55.27
2022-10-25T02:04:59.391Z,55.39
2022-10-25T02:07:35.061Z,55.46
2022-10-25T02:10:07.484Z,55.52
2022-10-25T02:12:47.388Z,55.51
2022-10-25T02:15:22.438Z,55.20
2022-10-25T02:17:57.612Z,55.35
2022-10-25T02:20:29.847Z,55.29
2022-10-25T02:23:01.555Z,55.37
2022-10-25T02:25:32.749Z,55.38
2022-10-25T02:28:02.679Z,55.02
2022-10-25T02:30:34.756Z,55.38
2022-10-25T02:33:03.360Z,55.12
2022-10-25T02:35:33.349Z,55.35
2022-10-25T02:38:02.539Z,54.95
2022-10-25T02:40:31.373Z,54.93
2022-10-25T02:47:37.972Z,55.15
2022-10-25T02:50:06.965Z,55.08
2022-10-25T02:52:36.781Z,55.32
2022-10-25T02:55:05.893Z,55.40
2022-10-25T02:57:34.922Z,55.07
2022-10-25T03:00:04.134Z,55.42
2022-10-25T03:02:32.722Z,55.04
2022-10-25T03:05:01.165Z,55.07
2022-10-25T03:07:29.631Z,54.88
2022-10-25T03:09:59.425Z,54.88
2022-10-25T03:12:27.875Z,54.90
2022-10-25T03:14:56.281Z,55.09
2022-10-25T03:17:24.638Z,54.98
2022-10-25T03:19:53.608Z,54.98
2022-10-25T03:22:21.971Z,55.37
2022-10-25T03:24:50.352Z,55.11
2022-10-25T03:27:20.159Z,54.80
2022-10-25T03:29:48.564Z,55.19
2022-10-25T03:32:16.964Z,55.06
2022-10-25T03:34:45.364Z,55.34
2022-10-25T03:37:13.746Z,55.01
2022-10-25T03:39:42.200Z,54.79
2022-10-25T03:42:10.583Z,54.85
2022-10-25T03:44:40.418Z,54.68
2022-10-25T03:47:08.812Z,54.85
2022-10-25T03:49:37.292Z,55.29
2022-10-25T03:52:07.200Z,54.82
2022-10-25T03:54:35.809Z,54.92
2022-10-25T03:57:05.316Z,54.93
2022-10-25T03:59:33.892Z,55.23
2022-10-25T04:02:03.727Z,55.05
2022-10-25T04:04:32.177Z,54.71
2022-10-25T04:07:00.592Z,55.20
2022-10-25T04:09:29.062Z,54.83
2022-10-25T04:11:57.559Z,54.71
2022-10-25T04:14:26.132Z,55.24
2022-10-25T04:16:54.563Z,54.90
2022-10-25T04:19:24.331Z,55.08
2022-10-25T04:21:52.769Z,54.96
2022-10-25T04:24:22.599Z,54.98
2022-10-25T04:26:51.070Z,54.98
2022-10-25T04:29:19.982Z,54.82
2022-10-25T04:31:48.442Z,54.65
2022-10-25T04:34:17.024Z,55.07
2022-10-25T04:36:46.852Z,55.21
2022-10-25T04:39:15.290Z,54.68
2022-10-25T04:41:43.788Z,54.70
2022-10-25T04:44:12.410Z,54.99
2022-10-25T04:46:43.986Z,54.65
2022-10-25T04:49:15.709Z,54.60
2022-10-25T04:51:44.540Z,54.74
2022-10-25T04:54:14.459Z,54.82
2022-10-25T04:56:42.908Z,54.61
2022-10-25T04:59:11.552Z,54.92
2022-10-25T05:01:40.198Z,55.35
2022-10-25T05:04:08.747Z,55.28
2022-10-25T05:06:37.141Z,55.00
2022-10-25T05:09:05.941Z,55.07
2022-10-25T05:14:05.062Z,55.24
2022-10-25T05:16:35.057Z,55.41
2022-10-25T05:19:03.805Z,55.23
2022-10-25T05:21:32.182Z,55.22
2022-10-25T05:24:02.243Z,55.04
2022-10-25T05:26:31.765Z,55.30
2022-10-25T05:29:01.918Z,54.96
2022-10-25T05:31:31.851Z,55.18
2022-10-25T05:34:01.735Z,55.38
2022-10-25T05:36:30.421Z,55.23
2022-10-25T05:39:00.807Z,55.01
2022-10-25T05:41:31.893Z,55.04
2022-10-25T05:44:05.002Z,55.27
2022-10-25T05:46:33.495Z,55.06
2022-10-25T05:49:02.226Z,55.01
2022-10-25T05:51:35.138Z,55.07
2022-10-25T05:54:06.634Z,54.95
2022-10-25T05:56:36.541Z,54.79
2022-10-25T05:59:08.848Z,54.78
2022-10-25T06:01:39.600Z,55.06
2022-10-25T06:04:08.990Z,56.18
2022-10-25T06:06:37.927Z,56.32
2022-10-25T06:09:07.668Z,55.90
2022-10-25T06:11:36.591Z,56.56
2022-10-25T06:14:07.137Z,56.63
2022-10-25T06:16:37.916Z,56.26
2022-10-25T06:19:06.405Z,56.24
2022-10-25T06:21:34.827Z,56.41
2022-10-25T06:24:04.203Z,56.23
2022-10-25T06:26:32.690Z,56.33
2022-10-25T06:29:02.668Z,56.16
2022-10-25T06:31:33.835Z,56.04
2022-10-25T06:34:02.638Z,56.38
2022-10-25T06:36:32.086Z,56.15
2022-10-25T06:39:05.771Z,56.03
2022-10-25T06:41:37.878Z,56.10
2022-10-25T06:44:07.612Z,56.34
2022-10-25T06:47:11.735Z,56.04
2022-10-25T06:49:28.330Z,55.91
2022-10-25T06:51:56.751Z,55.86
2022-10-25T06:54:26.681Z,55.82
2022-10-25T06:56:55.343Z,55.74
2022-10-25T06:59:23.855Z,55.45
2022-10-25T07:01:55.188Z,55.76
2022-10-25T07:04:24.048Z,55.83
2022-10-25T07:06:55.424Z,55.78
2022-10-25T07:09:24.159Z,55.71
2022-10-25T07:11:52.985Z,56.10
2022-10-25T07:14:22.134Z,55.67
2022-10-25T07:16:50.570Z,55.72
2022-10-25T07:19:20.364Z,55.42
2022-10-25T07:21:48.777Z,55.66
2022-10-25T07:24:17.227Z,55.39
2022-10-25T07:26:45.681Z,55.85
2022-10-25T07:29:14.265Z,55.58
2022-10-25T07:31:44.579Z,55.59
2022-10-25T07:34:15.214Z,54.50
2022-10-25T07:36:45.152Z,54.17
2022-10-25T07:39:13.687Z,53.92
2022-10-25T07:41:42.262Z,52.70
2022-10-25T07:44:15.914Z,52.40
2022-10-25T07:46:46.149Z,52.35
2022-10-25T07:49:15.124Z,52.40
2022-10-25T07:51:45.080Z,51.92
2022-10-25T07:54:13.616Z,51.47
2022-10-25T07:56:42.198Z,51.10
2022-10-25T07:59:10.868Z,50.83
2022-10-25T08:01:39.325Z,51.36
2022-10-25T08:04:07.873Z,50.68
2022-10-25T08:06:36.499Z,50.90
2022-10-25T08:09:14.476Z,50.44
2022-10-25T08:11:43.606Z,50.68
2022-10-25T08:14:12.125Z,50.20
2022-10-25T08:16:40.613Z,49.92
2022-10-25T08:19:09.063Z,50.16
2022-10-25T08:21:37.529Z,50.50
2022-10-25T08:24:07.918Z,50.97
2022-10-25T08:26:37.080Z,51.03
2022-10-25T08:29:05.847Z,51.63
2022-10-25T08:31:34.337Z,51.48
2022-10-25T08:34:02.854Z,51.31
2022-10-25T08:36:31.405Z,51.98
2022-10-25T08:39:00.779Z,52.02
2022-10-25T08:41:48.953Z,52.43
2022-10-25T08:44:28.409Z,52.64
2022-10-25T08:47:00.527Z,52.47
2022-10-25T08:49:39.522Z,52.65
2022-10-25T08:52:18.656Z,52.69
2022-10-25T08:54:47.411Z,52.83
2022-10-25T08:57:23.242Z,53.36
2022-10-25T08:59:54.437Z,53.18
2022-10-25T09:02:34.883Z,53.41
2022-10-25T09:05:03.921Z,53.33
2022-10-25T09:07:50.857Z,53.30
2022-10-25T09:10:36.274Z,53.62
2022-10-25T09:13:16.326Z,53.58
2022-10-25T09:15:51.911Z,53.40
2022-10-25T09:18:29.786Z,53.42
2022-10-25T09:20:59.670Z,53.99
2022-10-25T09:23:31.383Z,54.00
2022-10-25T09:26:04.875Z,53.77
2022-10-25T09:28:52.537Z,54.06
2022-10-25T09:31:24.201Z,54.12
2022-10-25T09:34:01.643Z,53.84
2022-10-25T09:36:36.978Z,53.75
2022-10-25T09:39:15.813Z,53.39
2022-10-25T09:41:47.860Z,53.74
2022-10-25T09:44:27.240Z,53.82
2022-10-25T09:46:59.180Z,53.85
2022-10-25T09:49:33.990Z,53.88
2022-10-25T09:52:13.934Z,53.97
2022-10-25T09:54:47.390Z,53.97
2022-10-25T09:57:15.954Z,53.73
2022-10-25T09:59:49.875Z,53.89
2022-10-25T10:02:23.790Z,53.90
2022-10-25T10:04:53.145Z,54.06
2022-10-25T10:07:25.141Z,53.67
2022-10-25T10:09:58.165Z,53.98
2022-10-25T10:12:31.896Z,53.72
2022-10-25T10:15:05.894Z,54.00
2022-10-25T10:17:34.365Z,53.71
2022-10-25T10:20:12.046Z,54.00
2022-10-25T10:25:25.157Z,53.63
2022-10-25T10:27:55.642Z,54.13
2022-10-25T10:30:28.800Z,53.94
2022-10-25T10:33:00.463Z,53.70
2022-10-25T10:35:32.184Z,54.07
2022-10-25T10:38:23.947Z,53.87
2022-10-25T10:40:53.990Z,53.47
2022-10-25T10:43:30.026Z,53.98
2022-10-25T10:46:05.624Z,54.03
2022-10-25T10:48:41.910Z,53.74
2022-10-25T10:51:25.556Z,54.12
2022-10-25T10:54:13.792Z,53.56
2022-10-25T10:56:42.237Z,54.04
2022-10-25T10:59:27.854Z,53.74
2022-10-25T11:01:58.375Z,54.19
2022-10-25T11:04:26.916Z,53.77
2022-10-25T11:07:13.939Z,54.14
2022-10-25T11:09:42.507Z,53.70
2022-10-25T11:12:14.893Z,53.85
2022-10-25T11:14:43.732Z,53.77
2022-10-25T11:17:16.925Z,53.82
2022-10-25T11:20:03.459Z,54.15
2022-10-25T11:22:44.071Z,54.08
2022-10-25T11:25:35.001Z,53.50
2022-10-25T11:28:22.562Z,53.81
2022-10-25T11:31:01.944Z,53.86
2022-10-25T11:33:49.321Z,53.74
2022-10-25T11:36:43.463Z,53.92
2022-10-25T11:39:34.433Z,54.06
2022-10-25T11:42:18.784Z,54.02
2022-10-25T11:45:20.586Z,54.22
2022-10-25T11:48:02.321Z,53.94
2022-10-25T11:50:41.314Z,54.29
2022-10-25T11:53:34.221Z,53.92
2022-10-25T11:56:08.340Z,54.01
2022-10-25T11:58:46.421Z,54.37
2022-10-25T12:01:30.614Z,54.38
2022-10-25T12:04:26.962Z,54.39
2022-10-25T12:07:07.678Z,54.46
2022-10-25T12:09:46.165Z,54.89
2022-10-25T12:12:36.630Z,55.32
2022-10-25T12:15:06.073Z,55.41
2022-10-25T12:17:35.962Z,55.06
2022-10-25T12:20:08.400Z,54.99
2022-10-25T12:22:43.193Z,54.81
2022-10-25T12:27:53.076Z,55.33
2022-10-25T12:32:58.801Z,55.29
2022-10-25T12:35:32.002Z,54.95
2022-10-25T12:38:07.695Z,55.30
2022-10-25T12:40:41.877Z,55.26
2022-10-25T12:43:17.849Z,55.52
2022-10-25T12:45:59.461Z,56.58
2022-10-25T12:48:53.590Z,54.56
2022-10-25T12:51:38.163Z,54.07
2022-10-25T12:54:33.704Z,53.27
2022-10-25T12:57:17.584Z,52.09
2022-10-25T13:00:00.898Z,50.86
2022-10-25T13:02:53.977Z,50.66
2022-10-25T13:05:45.226Z,50.17
2022-10-25T13:08:17.451Z,50.13
2022-10-25T13:10:59.494Z,49.76
2022-10-25T13:13:30.647Z,49.44
2022-10-25T13:16:01.443Z,49.53
2022-10-25T13:18:41.462Z,48.23
2022-10-25T13:21:14.515Z,47.65
2022-10-25T13:24:02.682Z,47.61
2022-10-25T13:26:55.144Z,48.07
2022-10-25T13:29:48.127Z,46.75
2022-10-25T13:32:19.639Z,46.83
2022-10-25T13:34:48.738Z,46.67
2022-10-25T13:37:40.094Z,46.59
2022-10-25T13:40:21.435Z,46.11
2022-10-25T13:43:00.847Z,46.51
2022-10-25T13:45:43.690Z,45.79
2022-10-25T13:48:23.973Z,46.65
2022-10-25T13:50:55.711Z,46.64
2022-10-25T13:53:25.973Z,45.95
2022-10-25T13:56:01.152Z,46.06
2022-10-25T13:58:47.220Z,45.90
2022-10-25T14:01:57.776Z,45.71
2022-10-25T14:04:39.796Z,45.71
2022-10-25T14:07:46.756Z,45.78
2022-10-25T14:10:28.895Z,45.75
2022-10-25T14:13:08.232Z,46.40
2022-10-25T14:15:46.679Z,45.85
2022-10-25T14:18:20.473Z,46.29
2022-10-25T14:20:52.602Z,46.32
2022-10-25T14:23:23.631Z,46.36
2022-10-25T14:25:56.293Z,46.64
2022-10-25T14:28:27.327Z,46.77
2022-10-25T14:30:59.022Z,46.67
2022-10-25T14:33:30.260Z,47.05
2022-10-25T14:36:08.469Z,47.76
2022-10-25T14:38:50.626Z,48.15
2022-10-25T14:41:23.018Z,48.64
2022-10-25T14:43:51.767Z,46.64
2022-10-25T14:46:25.059Z,45.39
2022-10-25T14:48:55.907Z,44.41
2022-10-25T14:51:28.349Z,44.33
2022-10-25T14:53:59.959Z,44.87
2022-10-25T14:56:31.541Z,45.03
2022-10-25T14:59:02.122Z,45.38
2022-10-25T15:01:31.995Z,45.11
2022-10-25T15:04:01.638Z,45.44
2022-10-25T15:06:33.234Z,45.77
2022-10-25T15:09:40.627Z,46.27
2022-10-25T15:12:15.433Z,46.33
2022-10-25T15:14:44.016Z,46.15
2022-10-25T15:17:24.467Z,46.59
2022-10-25T15:20:06.502Z,46.70
2022-10-25T15:22:44.113Z,46.85
2022-10-25T15:25:28.772Z,46.98
2022-10-25T15:27:58.931Z,47.09
2022-10-25T15:30:35.161Z,47.30
2022-10-25T15:33:06.881Z,47.61
2022-10-25T15:35:45.441Z,47.53
2022-10-25T15:38:14.075Z,47.89
2022-10-25T15:40:42.909Z,47.84
2022-10-25T15:43:11.349Z,47.67
2022-10-25T15:45:39.924Z,47.73
2022-10-25T15:48:15.079Z,48.03
2022-10-25T15:50:47.779Z,48.10
2022-10-25T15:53:16.290Z,48.00
2022-10-25T15:55:45.458Z,48.24
2022-10-25T15:58:13.893Z,48.07
2022-10-25T16:00:43.806Z,48.51
2022-10-25T16:03:20.885Z,48.35
2022-10-25T16:05:50.260Z,48.43
2022-10-25T16:08:19.185Z,48.61
2022-10-25T16:10:47.809Z,48.82
2022-10-25T16:13:20.518Z,48.66
2022-10-25T16:15:49.126Z,48.85
2022-10-25T16:18:19.082Z,48.71
2022-10-25T16:20:47.577Z,50.03
2022-10-25T16:23:17.243Z,50.04
2022-10-25T16:25:45.953Z,50.75
2022-10-25T16:28:15.234Z,50.63
2022-10-25T16:30:45.515Z,50.44
2022-10-25T16:33:14.410Z,50.63
2022-10-25T16:35:44.197Z,50.44
2022-10-25T16:38:12.673Z,50.35
2022-10-25T16:40:41.116Z,50.30
2022-10-25T16:43:11.756Z,50.49
2022-10-25T16:45:40.343Z,50.97
2022-10-25T16:48:08.796Z,51.43
2022-10-25T16:50:37.415Z,51.02
2022-10-25T16:53:09.102Z,51.38
2022-10-25T16:55:37.614Z,51.55
2022-10-25T16:58:06.124Z,51.19
2022-10-25T17:00:35.923Z,51.49
2022-10-25T17:03:05.418Z,51.59
2022-10-25T17:05:38.269Z,51.69
2022-10-25T17:08:10.802Z,51.50
2022-10-25T17:10:43.665Z,51.36
2022-10-25T17:13:16.025Z,51.71
2022-10-25T17:15:44.457Z,51.79
2022-10-25T17:18:16.007Z,52.30
2022-10-25T17:20:44.552Z,51.92
2022-10-25T17:23:14.906Z,51.85
2022-10-25T17:25:43.364Z,51.33
2022-10-25T17:28:11.760Z,51.46
2022-10-25T17:30:43.051Z,51.40
2022-10-25T17:33:11.505Z,51.88
2022-10-25T17:35:42.375Z,51.81
2022-10-25T17:38:10.853Z,52.27
2022-10-25T17:40:44.187Z,52.39
2022-10-25T17:43:15.222Z,51.96
2022-10-25T17:45:45.266Z,52.12
2022-10-25T17:48:13.725Z,52.40
2022-10-25T17:50:43.078Z,52.41
2022-10-25T17:53:11.539Z,52.42
2022-10-25T17:55:41.320Z,52.50
2022-10-25T17:58:09.774Z,52.14
2022-10-25T18:00:38.196Z,52.54
2022-10-25T18:03:06.764Z,52.38
2022-10-25T18:05:35.216Z,52.57
2022-10-25T18:08:03.653Z,52.53
2022-10-25T18:10:34.053Z,52.46
2022-10-25T18:13:03.803Z,52.68
2022-10-25T18:15:33.321Z,52.65
2022-10-25T18:18:01.855Z,53.10
2022-10-25T18:20:30.297Z,52.95
2022-10-25T18:22:58.704Z,52.99
2022-10-25T18:25:27.197Z,53.61
2022-10-25T18:27:55.747Z,53.39
2022-10-25T18:30:25.571Z,53.12
2022-10-25T18:32:54.035Z,53.21
2022-10-25T18:35:22.465Z,53.20
2022-10-25T18:37:51.145Z,52.95
2022-10-25T18:40:19.936Z,53.43
2022-10-25T18:42:48.791Z,53.23
2022-10-25T18:45:17.320Z,53.91
2022-10-25T18:47:50.444Z,53.46
2022-10-25T18:50:19.153Z,53.77
2022-10-25T18:52:47.647Z,53.04
2022-10-25T18:55:16.259Z,53.19
2022-10-25T18:57:44.675Z,53.44
2022-10-25T19:00:14.922Z,53.43
2022-10-25T19:02:43.429Z,53.27
2022-10-25T19:05:13.266Z,53.56
2022-10-25T19:07:41.723Z,53.30
2022-10-25T19:10:10.370Z,53.15
2022-10-25T19:12:38.879Z,52.58
2022-10-25T19:15:08.261Z,52.83
2022-10-25T19:17:36.742Z,52.83
2022-10-25T19:20:07.467Z,52.75
2022-10-25T19:22:37.242Z,52.96
2022-10-25T19:25:06.475Z,52.81
2022-10-25T19:27:34.918Z,52.89
2022-10-25T19:30:03.431Z,52.74
2022-10-25T19:32:32.783Z,52.89
2022-10-25T19:35:01.238Z,52.65
2022-10-25T19:37:29.693Z,53.15
2022-10-25T19:39:59.544Z,52.97
2022-10-25T19:42:27.934Z,52.85
2022-10-25T19:44:56.466Z,52.69
2022-10-25T19:47:25.017Z,53.05
2022-10-25T19:49:53.448Z,53.03
2022-10-25T19:52:21.877Z,52.81
2022-10-25T19:54:50.405Z,52.50
2022-10-25T19:57:20.188Z,52.61
2022-10-25T19:59:48.637Z,52.88
2022-10-25T20:02:17.238Z,52.99
2022-10-25T20:04:45.773Z,52.78
2022-10-25T20:07:14.396Z,52.47
2022-10-25T20:09:42.873Z,52.66
2022-10-25T20:12:11.292Z,52.55
2022-10-25T20:14:42.670Z,52.42
2022-10-25T20:17:12.457Z,52.46
2022-10-25T20:19:40.893Z,52.83
2022-10-25T20:22:09.276Z,52.80
2022-10-25T20:24:37.702Z,52.46
2022-10-25T20:27:06.608Z,52.64
2022-10-25T20:29:35.063Z,53.04
2022-10-25T20:32:04.969Z,52.98
2022-10-25T20:34:35.045Z,52.74
2022-10-25T20:37:04.070Z,52.67
2022-10-25T20:39:32.600Z,53.13
2022-10-25T20:42:00.996Z,53.04
2022-10-25T20:44:29.427Z,52.88
2022-10-25T20:46:57.893Z,52.78
2022-10-25T20:49:27.709Z,52.75
2022-10-25T20:51:56.105Z,53.25
2022-10-25T20:54:24.560Z,53.02
2022-10-25T20:56:53.051Z,53.03
2022-10-25T20:59:21.430Z,52.93
2022-10-25T21:01:49.983Z,53.08
2022-10-25T21:04:26.130Z,53.23
2022-10-25T21:07:05.853Z,52.81
2022-10-25T21:09:34.298Z,53.02
2022-10-25T21:12:02.688Z,52.90
2022-10-25T21:14:31.110Z,52.73
2022-10-25T21:16:59.513Z,53.39
2022-10-25T21:19:27.862Z,52.82
2022-10-25T21:21:56.261Z,52.99
2022-10-25T21:24:26.161Z,53.15
2022-10-25T21:26:54.635Z,53.14
2022-10-25T21:29:23.185Z,53.28
2022-10-25T21:31:51.692Z,52.76
2022-10-25T21:34:20.118Z,53.18
2022-10-25T21:36:48.531Z,52.80
2022-10-25T21:39:22.626Z,52.77
2022-10-25T21:41:53.012Z,52.90
2022-10-25T21:44:22.226Z,52.92
2022-10-25T21:46:50.779Z,53.16
2022-10-25T21:49:19.181Z,53.16
2022-10-25T21:51:47.630Z,53.23
2022-10-25T21:54:16.025Z,53.03
2022-10-25T21:56:44.482Z,53.19
2022-10-25T21:59:14.294Z,53.28
2022-10-25T22:01:42.770Z,52.79
2022-10-25T22:04:11.204Z,53.03
2022-10-25T22:06:39.624Z,52.91
2022-10-25T22:09:08.331Z,52.93
2022-10-25T22:11:38.799Z,52.97
2022-10-25T22:14:09.950Z,52.87
2022-10-25T22:16:40.741Z,52.89
2022-10-25T22:19:14.799Z,53.36
2022-10-25T22:21:43.828Z,53.20
2022-10-25T22:24:13.732Z,53.29
2022-10-25T22:26:44.138Z,53.23
2022-10-25T22:29:13.866Z,52.96
2022-10-25T22:31:43.600Z,52.93
2022-10-25T22:34:12.183Z,53.34
2022-10-25T22:36:42.509Z,53.26
2022-10-25T22:39:11.096Z,52.94
2022-10-25T22:41:39.547Z,53.29
2022-10-25T22:44:07.970Z,53.21
2022-10-25T22:46:36.906Z,52.97
2022-10-25T22:49:09.013Z,53.24
2022-10-25T22:51:39.118Z,53.24
2022-10-25T22:54:07.823Z,53.17
2022-10-25T22:56:36.246Z,53.15
2022-10-25T22:59:06.317Z,52.86
2022-10-25T23:01:36.509Z,53.28
2022-10-25T23:04:09.479Z,53.24
2022-10-25T23:06:39.484Z,53.32
2022-10-25T23:09:09.736Z,53.37
2022-10-25T23:11:40.028Z,52.95
2022-10-25T23:14:13.312Z,52.80
2022-10-25T23:16:45.006Z,53.24
2022-10-25T23:19:14.837Z,53.25
2022-10-25T23:21:43.277Z,52.88
2022-10-25T23:24:11.796Z,53.30
2022-10-25T23:26:40.525Z,53.30
2022-10-25T23:29:09.053Z,53.32
2022-10-25T23:31:37.811Z,52.84
2022-10-25T23:34:06.228Z,53.32
2022-10-25T23:36:38.175Z,53.39
2022-10-25T23:39:08.407Z,53.30
2022-10-25T23:41:37.458Z,53.23
2022-10-25T23:44:05.931Z,52.90
2022-10-25T23:46:34.425Z,52.85
2022-10-25T23:49:02.887Z,52.95
2022-10-25T23:51:31.342Z,52.89
2022-10-25T23:54:01.147Z,52.94
2022-10-25T23:56:29.567Z,53.21
2022-10-25T23:58:58.032Z,52.85
